sensor_id;sensor_type;location;lat;lon;timestamp;P1;durP1;ratioP1;P2;durP2;ratioP2
71566;SDS011;59403;47.456;19.120;2023-05-20T00:01:39;11.18;;;8.90;;
71566;SDS011;59403;47.456;19.120;2023-05-20T00:04:06;11.37;;;9.13;;
71566;SDS011;59403;47.456;19.120;2023-05-20T00:06:33;11.15;;;8.90;;
71566;SDS011;59403;47.456;19.120;2023-05-20T00:09:01;11.32;;;9.60;;
71566;SDS011;59403;47.456;19.120;2023-05-20T00:11:28;16.40;;;9.95;;
71566;SDS011;59403;47.456;19.120;2023-05-20T00:13:55;14.30;;;9.20;;
71566;SDS011;59403;47.456;19.120;2023-05-20T00:16:22;13.87;;;9.17;;
71566;SDS011;59403;47.456;19.120;2023-05-20T00:18:49;11.77;;;9.55;;
71566;SDS011;59403;47.456;19.120;2023-05-20T00:21:16;13.15;;;9.55;;
71566;SDS011;59403;47.456;19.120;2023-05-20T00:23:43;22.02;;;9.95;;
71566;SDS011;59403;47.456;19.120;2023-05-20T00:26:11;16.83;;;9.38;;
71566;SDS011;59403;47.456;19.120;2023-05-20T00:28:38;14.63;;;8.93;;
71566;SDS011;59403;47.456;19.120;2023-05-20T00:31:04;12.43;;;9.20;;
71566;SDS011;59403;47.456;19.120;2023-05-20T00:33:31;12.13;;;8.90;;
71566;SDS011;59403;47.456;19.120;2023-05-20T00:36:00;12.63;;;8.85;;
71566;SDS011;59403;47.456;19.120;2023-05-20T00:38:27;13.18;;;9.68;;
71566;SDS011;59403;47.456;19.120;2023-05-20T00:40:54;11.97;;;8.73;;
71566;SDS011;59403;47.456;19.120;2023-05-20T00:43:22;11.50;;;9.40;;
71566;SDS011;59403;47.456;19.120;2023-05-20T00:45:49;9.93;;;8.43;;
71566;SDS011;59403;47.456;19.120;2023-05-20T00:48:17;11.00;;;9.07;;
71566;SDS011;59403;47.456;19.120;2023-05-20T00:50:46;11.88;;;8.70;;
71566;SDS011;59403;47.456;19.120;2023-05-20T00:53:13;18.17;;;9.23;;
71566;SDS011;59403;47.456;19.120;2023-05-20T00:55:42;13.52;;;9.13;;
71566;SDS011;59403;47.456;19.120;2023-05-20T00:58:09;12.35;;;9.57;;
71566;SDS011;59403;47.456;19.120;2023-05-20T01:00:38;10.73;;;8.75;;
71566;SDS011;59403;47.456;19.120;2023-05-20T01:03:05;11.57;;;8.75;;
71566;SDS011;59403;47.456;19.120;2023-05-20T01:05:32;16.23;;;9.13;;
71566;SDS011;59403;47.456;19.120;2023-05-20T01:07:59;10.20;;;8.88;;
71566;SDS011;59403;47.456;19.120;2023-05-20T01:10:26;11.48;;;8.32;;
71566;SDS011;59403;47.456;19.120;2023-05-20T01:12:57;10.38;;;9.15;;
71566;SDS011;59403;47.456;19.120;2023-05-20T01:15:27;12.35;;;9.50;;
71566;SDS011;59403;47.456;19.120;2023-05-20T01:18:00;13.17;;;8.80;;
71566;SDS011;59403;47.456;19.120;2023-05-20T01:20:30;16.02;;;8.80;;
71566;SDS011;59403;47.456;19.120;2023-05-20T01:22:59;12.02;;;9.10;;
71566;SDS011;59403;47.456;19.120;2023-05-20T01:25:26;15.00;;;10.00;;
71566;SDS011;59403;47.456;19.120;2023-05-20T01:27:53;10.88;;;9.27;;
71566;SDS011;59403;47.456;19.120;2023-05-20T01:30:23;14.10;;;9.70;;
71566;SDS011;59403;47.456;19.120;2023-05-20T01:32:57;12.50;;;9.07;;
71566;SDS011;59403;47.456;19.120;2023-05-20T01:35:27;12.95;;;8.57;;
71566;SDS011;59403;47.456;19.120;2023-05-20T01:37:55;11.32;;;9.02;;
71566;SDS011;59403;47.456;19.120;2023-05-20T01:40:24;20.58;;;9.40;;
71566;SDS011;59403;47.456;19.120;2023-05-20T01:42:53;12.37;;;8.90;;
71566;SDS011;59403;47.456;19.120;2023-05-20T01:45:22;12.05;;;8.75;;
71566;SDS011;59403;47.456;19.120;2023-05-20T01:47:49;11.95;;;8.65;;
71566;SDS011;59403;47.456;19.120;2023-05-20T01:50:16;11.93;;;8.32;;
71566;SDS011;59403;47.456;19.120;2023-05-20T01:52:43;13.93;;;9.10;;
71566;SDS011;59403;47.456;19.120;2023-05-20T01:55:10;11.50;;;9.00;;
71566;SDS011;59403;47.456;19.120;2023-05-20T01:57:38;11.20;;;9.07;;
71566;SDS011;59403;47.456;19.120;2023-05-20T02:00:05;13.65;;;9.82;;
71566;SDS011;59403;47.456;19.120;2023-05-20T02:02:33;13.48;;;8.93;;
71566;SDS011;59403;47.456;19.120;2023-05-20T02:05:00;11.12;;;9.07;;
71566;SDS011;59403;47.456;19.120;2023-05-20T02:07:27;11.53;;;8.97;;
71566;SDS011;59403;47.456;19.120;2023-05-20T02:09:54;12.15;;;8.50;;
71566;SDS011;59403;47.456;19.120;2023-05-20T02:12:21;12.40;;;9.13;;
71566;SDS011;59403;47.456;19.120;2023-05-20T02:14:49;15.93;;;9.77;;
71566;SDS011;59403;47.456;19.120;2023-05-20T02:17:16;14.32;;;10.20;;
71566;SDS011;59403;47.456;19.120;2023-05-20T02:19:43;12.80;;;8.70;;
71566;SDS011;59403;47.456;19.120;2023-05-20T02:22:10;15.07;;;9.70;;
71566;SDS011;59403;47.456;19.120;2023-05-20T02:24:37;12.15;;;8.65;;
71566;SDS011;59403;47.456;19.120;2023-05-20T02:27:04;12.73;;;8.65;;
71566;SDS011;59403;47.456;19.120;2023-05-20T02:29:32;12.20;;;9.35;;
71566;SDS011;59403;47.456;19.120;2023-05-20T02:32:00;11.40;;;8.50;;
71566;SDS011;59403;47.456;19.120;2023-05-20T02:34:28;12.32;;;8.93;;
71566;SDS011;59403;47.456;19.120;2023-05-20T02:36:56;13.60;;;9.10;;
71566;SDS011;59403;47.456;19.120;2023-05-20T02:39:23;10.82;;;8.77;;
71566;SDS011;59403;47.456;19.120;2023-05-20T02:41:50;14.13;;;8.40;;
71566;SDS011;59403;47.456;19.120;2023-05-20T02:44:17;12.50;;;8.23;;
71566;SDS011;59403;47.456;19.120;2023-05-20T02:46:44;11.10;;;8.57;;
71566;SDS011;59403;47.456;19.120;2023-05-20T02:49:12;10.30;;;8.48;;
71566;SDS011;59403;47.456;19.120;2023-05-20T02:51:39;11.52;;;8.55;;
71566;SDS011;59403;47.456;19.120;2023-05-20T02:54:06;11.15;;;8.57;;
71566;SDS011;59403;47.456;19.120;2023-05-20T02:56:33;10.63;;;8.07;;
71566;SDS011;59403;47.456;19.120;2023-05-20T02:59:00;12.77;;;8.82;;
71566;SDS011;59403;47.456;19.120;2023-05-20T03:01:27;13.90;;;8.30;;
71566;SDS011;59403;47.456;19.120;2023-05-20T03:03:54;11.73;;;7.90;;
71566;SDS011;59403;47.456;19.120;2023-05-20T03:06:22;11.73;;;8.75;;
71566;SDS011;59403;47.456;19.120;2023-05-20T03:08:50;12.30;;;8.50;;
71566;SDS011;59403;47.456;19.120;2023-05-20T03:11:17;12.00;;;8.45;;
71566;SDS011;59403;47.456;19.120;2023-05-20T03:13:44;12.73;;;8.63;;
71566;SDS011;59403;47.456;19.120;2023-05-20T03:16:10;11.93;;;8.13;;
71566;SDS011;59403;47.456;19.120;2023-05-20T03:18:38;13.70;;;9.02;;
71566;SDS011;59403;47.456;19.120;2023-05-20T03:21:05;16.20;;;8.90;;
71566;SDS011;59403;47.456;19.120;2023-05-20T03:23:33;13.35;;;8.52;;
71566;SDS011;59403;47.456;19.120;2023-05-20T03:26:00;12.77;;;9.40;;
71566;SDS011;59403;47.456;19.120;2023-05-20T03:28:28;13.25;;;8.95;;
71566;SDS011;59403;47.456;19.120;2023-05-20T03:30:55;12.65;;;9.20;;
71566;SDS011;59403;47.456;19.120;2023-05-20T03:33:22;13.83;;;9.30;;
71566;SDS011;59403;47.456;19.120;2023-05-20T03:35:50;11.32;;;8.43;;
71566;SDS011;59403;47.456;19.120;2023-05-20T03:38:17;11.70;;;9.25;;
71566;SDS011;59403;47.456;19.120;2023-05-20T03:40:45;10.10;;;8.50;;
71566;SDS011;59403;47.456;19.120;2023-05-20T03:43:12;11.38;;;8.45;;
71566;SDS011;59403;47.456;19.120;2023-05-20T03:45:39;13.50;;;8.70;;
71566;SDS011;59403;47.456;19.120;2023-05-20T03:48:06;12.57;;;8.77;;
71566;SDS011;59403;47.456;19.120;2023-05-20T03:50:33;15.98;;;8.50;;
71566;SDS011;59403;47.456;19.120;2023-05-20T03:53:00;14.73;;;9.80;;
71566;SDS011;59403;47.456;19.120;2023-05-20T03:55:27;11.88;;;9.43;;
71566;SDS011;59403;47.456;19.120;2023-05-20T03:57:55;12.97;;;8.10;;
71566;SDS011;59403;47.456;19.120;2023-05-20T04:00:22;24.67;;;9.05;;
71566;SDS011;59403;47.456;19.120;2023-05-20T04:02:49;13.98;;;8.10;;
71566;SDS011;59403;47.456;19.120;2023-05-20T04:05:16;12.13;;;8.18;;
71566;SDS011;59403;47.456;19.120;2023-05-20T04:07:43;11.93;;;8.57;;
71566;SDS011;59403;47.456;19.120;2023-05-20T04:10:10;13.53;;;7.70;;
71566;SDS011;59403;47.456;19.120;2023-05-20T04:12:37;12.52;;;8.10;;
71566;SDS011;59403;47.456;19.120;2023-05-20T04:15:06;10.48;;;8.25;;
71566;SDS011;59403;47.456;19.120;2023-05-20T04:17:34;11.43;;;7.75;;
71566;SDS011;59403;47.456;19.120;2023-05-20T04:20:02;13.23;;;8.73;;
71566;SDS011;59403;47.456;19.120;2023-05-20T04:22:31;12.03;;;8.63;;
71566;SDS011;59403;47.456;19.120;2023-05-20T04:24:58;11.65;;;8.43;;
71566;SDS011;59403;47.456;19.120;2023-05-20T04:27:27;10.80;;;8.50;;
71566;SDS011;59403;47.456;19.120;2023-05-20T04:29:54;11.60;;;8.02;;
71566;SDS011;59403;47.456;19.120;2023-05-20T04:32:24;11.80;;;8.25;;
71566;SDS011;59403;47.456;19.120;2023-05-20T04:34:51;11.60;;;8.17;;
71566;SDS011;59403;47.456;19.120;2023-05-20T04:37:19;12.90;;;8.75;;
71566;SDS011;59403;47.456;19.120;2023-05-20T04:39:46;11.23;;;7.75;;
71566;SDS011;59403;47.456;19.120;2023-05-20T04:42:14;10.10;;;7.72;;
71566;SDS011;59403;47.456;19.120;2023-05-20T04:44:42;10.65;;;7.47;;
71566;SDS011;59403;47.456;19.120;2023-05-20T04:47:10;11.23;;;7.50;;
71566;SDS011;59403;47.456;19.120;2023-05-20T04:49:39;11.95;;;7.37;;
71566;SDS011;59403;47.456;19.120;2023-05-20T04:52:06;10.45;;;7.18;;
71566;SDS011;59403;47.456;19.120;2023-05-20T04:54:33;10.38;;;6.97;;
71566;SDS011;59403;47.456;19.120;2023-05-20T04:57:00;9.43;;;7.30;;
71566;SDS011;59403;47.456;19.120;2023-05-20T04:59:27;9.37;;;6.60;;
71566;SDS011;59403;47.456;19.120;2023-05-20T05:01:54;8.93;;;6.78;;
71566;SDS011;59403;47.456;19.120;2023-05-20T05:04:21;8.32;;;6.47;;
71566;SDS011;59403;47.456;19.120;2023-05-20T05:06:49;9.30;;;6.80;;
71566;SDS011;59403;47.456;19.120;2023-05-20T05:09:16;9.93;;;6.35;;
71566;SDS011;59403;47.456;19.120;2023-05-20T05:11:43;8.87;;;6.03;;
71566;SDS011;59403;47.456;19.120;2023-05-20T05:14:10;8.73;;;6.03;;
71566;SDS011;59403;47.456;19.120;2023-05-20T05:16:37;9.45;;;6.70;;
71566;SDS011;59403;47.456;19.120;2023-05-20T05:19:04;10.57;;;6.75;;
71566;SDS011;59403;47.456;19.120;2023-05-20T05:21:31;9.73;;;6.22;;
71566;SDS011;59403;47.456;19.120;2023-05-20T05:23:59;8.53;;;6.23;;
71566;SDS011;59403;47.456;19.120;2023-05-20T05:26:26;10.40;;;6.32;;
71566;SDS011;59403;47.456;19.120;2023-05-20T05:28:53;8.45;;;6.30;;
71566;SDS011;59403;47.456;19.120;2023-05-20T05:31:20;6.85;;;5.57;;
71566;SDS011;59403;47.456;19.120;2023-05-20T05:33:47;11.00;;;6.53;;
71566;SDS011;59403;47.456;19.120;2023-05-20T05:36:14;9.07;;;6.37;;
71566;SDS011;59403;47.456;19.120;2023-05-20T05:38:41;8.85;;;6.03;;
71566;SDS011;59403;47.456;19.120;2023-05-20T05:41:10;10.23;;;6.22;;
71566;SDS011;59403;47.456;19.120;2023-05-20T05:43:37;9.43;;;6.78;;
71566;SDS011;59403;47.456;19.120;2023-05-20T05:46:04;8.57;;;6.03;;
71566;SDS011;59403;47.456;19.120;2023-05-20T05:48:31;8.83;;;6.40;;
71566;SDS011;59403;47.456;19.120;2023-05-20T05:50:57;8.77;;;6.18;;
71566;SDS011;59403;47.456;19.120;2023-05-20T05:53:24;8.85;;;6.28;;
71566;SDS011;59403;47.456;19.120;2023-05-20T05:55:51;8.82;;;6.50;;
71566;SDS011;59403;47.456;19.120;2023-05-20T05:58:20;8.73;;;6.55;;
71566;SDS011;59403;47.456;19.120;2023-05-20T06:00:49;9.43;;;6.50;;
71566;SDS011;59403;47.456;19.120;2023-05-20T06:03:19;11.43;;;6.90;;
71566;SDS011;59403;47.456;19.120;2023-05-20T06:05:46;7.82;;;5.97;;
71566;SDS011;59403;47.456;19.120;2023-05-20T06:08:13;8.60;;;6.10;;
71566;SDS011;59403;47.456;19.120;2023-05-20T06:10:40;8.88;;;6.53;;
71566;SDS011;59403;47.456;19.120;2023-05-20T06:13:07;10.40;;;6.40;;
71566;SDS011;59403;47.456;19.120;2023-05-20T06:15:41;8.45;;;6.20;;
71566;SDS011;59403;47.456;19.120;2023-05-20T06:18:11;11.10;;;6.60;;
71566;SDS011;59403;47.456;19.120;2023-05-20T06:20:38;9.10;;;6.60;;
71566;SDS011;59403;47.456;19.120;2023-05-20T06:23:05;9.27;;;6.65;;
71566;SDS011;59403;47.456;19.120;2023-05-20T06:25:32;9.03;;;6.07;;
71566;SDS011;59403;47.456;19.120;2023-05-20T06:27:58;9.15;;;6.28;;
71566;SDS011;59403;47.456;19.120;2023-05-20T06:30:25;8.70;;;6.78;;
71566;SDS011;59403;47.456;19.120;2023-05-20T06:32:54;10.23;;;6.65;;
71566;SDS011;59403;47.456;19.120;2023-05-20T06:35:21;9.63;;;6.93;;
71566;SDS011;59403;47.456;19.120;2023-05-20T06:37:47;11.47;;;6.43;;
71566;SDS011;59403;47.456;19.120;2023-05-20T06:40:14;10.50;;;6.25;;
71566;SDS011;59403;47.456;19.120;2023-05-20T06:42:41;8.23;;;6.85;;
71566;SDS011;59403;47.456;19.120;2023-05-20T06:45:09;9.50;;;6.80;;
71566;SDS011;59403;47.456;19.120;2023-05-20T06:47:36;9.93;;;6.93;;
71566;SDS011;59403;47.456;19.120;2023-05-20T06:50:07;8.57;;;5.90;;
71566;SDS011;59403;47.456;19.120;2023-05-20T06:52:34;9.75;;;6.22;;
71566;SDS011;59403;47.456;19.120;2023-05-20T06:55:01;9.80;;;6.65;;
71566;SDS011;59403;47.456;19.120;2023-05-20T06:57:29;9.55;;;6.22;;
71566;SDS011;59403;47.456;19.120;2023-05-20T06:59:57;11.15;;;6.68;;
71566;SDS011;59403;47.456;19.120;2023-05-20T07:02:24;12.40;;;7.53;;
71566;SDS011;59403;47.456;19.120;2023-05-20T07:04:51;9.18;;;6.60;;
71566;SDS011;59403;47.456;19.120;2023-05-20T07:07:19;11.48;;;6.75;;
71566;SDS011;59403;47.456;19.120;2023-05-20T07:09:46;10.90;;;6.65;;
71566;SDS011;59403;47.456;19.120;2023-05-20T07:12:14;9.70;;;6.95;;
71566;SDS011;59403;47.456;19.120;2023-05-20T07:14:41;9.57;;;6.17;;
71566;SDS011;59403;47.456;19.120;2023-05-20T07:17:08;9.10;;;6.80;;
71566;SDS011;59403;47.456;19.120;2023-05-20T07:19:36;12.65;;;8.07;;
71566;SDS011;59403;47.456;19.120;2023-05-20T07:22:03;10.48;;;7.60;;
71566;SDS011;59403;47.456;19.120;2023-05-20T07:24:31;11.32;;;7.32;;
71566;SDS011;59403;47.456;19.120;2023-05-20T07:26:58;10.27;;;7.00;;
71566;SDS011;59403;47.456;19.120;2023-05-20T07:29:25;10.35;;;6.60;;
71566;SDS011;59403;47.456;19.120;2023-05-20T07:31:52;9.63;;;7.45;;
71566;SDS011;59403;47.456;19.120;2023-05-20T07:34:19;9.70;;;6.75;;
71566;SDS011;59403;47.456;19.120;2023-05-20T07:36:46;9.38;;;7.10;;
71566;SDS011;59403;47.456;19.120;2023-05-20T07:39:13;9.27;;;7.07;;
71566;SDS011;59403;47.456;19.120;2023-05-20T07:41:42;9.27;;;6.87;;
71566;SDS011;59403;47.456;19.120;2023-05-20T07:44:09;10.68;;;6.68;;
71566;SDS011;59403;47.456;19.120;2023-05-20T07:46:37;7.72;;;6.68;;
71566;SDS011;59403;47.456;19.120;2023-05-20T07:49:05;10.32;;;7.12;;
71566;SDS011;59403;47.456;19.120;2023-05-20T07:51:32;10.87;;;6.97;;
71566;SDS011;59403;47.456;19.120;2023-05-20T07:53:59;11.65;;;7.32;;
71566;SDS011;59403;47.456;19.120;2023-05-20T07:56:26;7.80;;;6.80;;
71566;SDS011;59403;47.456;19.120;2023-05-20T07:58:55;11.30;;;6.90;;
71566;SDS011;59403;47.456;19.120;2023-05-20T08:01:23;11.57;;;7.18;;
71566;SDS011;59403;47.456;19.120;2023-05-20T08:03:51;11.90;;;6.87;;
71566;SDS011;59403;47.456;19.120;2023-05-20T08:06:18;10.27;;;6.32;;
71566;SDS011;59403;47.456;19.120;2023-05-20T08:08:49;8.70;;;7.07;;
71566;SDS011;59403;47.456;19.120;2023-05-20T08:11:18;10.60;;;7.05;;
71566;SDS011;59403;47.456;19.120;2023-05-20T08:13:45;8.73;;;6.82;;
71566;SDS011;59403;47.456;19.120;2023-05-20T08:16:14;9.47;;;7.40;;
71566;SDS011;59403;47.456;19.120;2023-05-20T08:18:41;9.65;;;7.12;;
71566;SDS011;59403;47.456;19.120;2023-05-20T08:21:08;10.88;;;7.40;;
71566;SDS011;59403;47.456;19.120;2023-05-20T08:23:35;10.07;;;6.95;;
71566;SDS011;59403;47.456;19.120;2023-05-20T08:26:02;9.57;;;7.00;;
71566;SDS011;59403;47.456;19.120;2023-05-20T08:28:29;10.10;;;7.07;;
71566;SDS011;59403;47.456;19.120;2023-05-20T08:30:56;10.45;;;7.07;;
71566;SDS011;59403;47.456;19.120;2023-05-20T08:33:25;10.63;;;7.85;;
71566;SDS011;59403;47.456;19.120;2023-05-20T08:35:52;10.40;;;7.25;;
71566;SDS011;59403;47.456;19.120;2023-05-20T08:38:19;9.93;;;7.55;;
71566;SDS011;59403;47.456;19.120;2023-05-20T08:40:50;10.20;;;7.30;;
71566;SDS011;59403;47.456;19.120;2023-05-20T08:43:17;8.32;;;7.40;;
71566;SDS011;59403;47.456;19.120;2023-05-20T08:45:45;9.35;;;7.53;;
71566;SDS011;59403;47.456;19.120;2023-05-20T08:48:12;9.60;;;7.40;;
71566;SDS011;59403;47.456;19.120;2023-05-20T08:50:42;10.65;;;9.63;;
71566;SDS011;59403;47.456;19.120;2023-05-20T08:53:10;12.00;;;10.70;;
71566;SDS011;59403;47.456;19.120;2023-05-20T08:55:41;9.75;;;8.73;;
71566;SDS011;59403;47.456;19.120;2023-05-20T08:58:11;9.55;;;7.22;;
71566;SDS011;59403;47.456;19.120;2023-05-20T09:00:39;12.32;;;8.05;;
71566;SDS011;59403;47.456;19.120;2023-05-20T09:03:06;10.15;;;8.50;;
71566;SDS011;59403;47.456;19.120;2023-05-20T09:05:34;8.37;;;7.20;;
71566;SDS011;59403;47.456;19.120;2023-05-20T09:08:06;9.07;;;7.07;;
71566;SDS011;59403;47.456;19.120;2023-05-20T09:10:34;10.70;;;7.85;;
71566;SDS011;59403;47.456;19.120;2023-05-20T09:13:01;9.40;;;7.62;;
71566;SDS011;59403;47.456;19.120;2023-05-20T09:15:29;9.27;;;7.70;;
71566;SDS011;59403;47.456;19.120;2023-05-20T09:17:58;9.87;;;7.07;;
71566;SDS011;59403;47.456;19.120;2023-05-20T09:20:25;11.18;;;7.45;;
71566;SDS011;59403;47.456;19.120;2023-05-20T09:22:53;10.73;;;8.55;;
71566;SDS011;59403;47.456;19.120;2023-05-20T09:25:25;10.15;;;6.62;;
71566;SDS011;59403;47.456;19.120;2023-05-20T09:27:53;9.30;;;7.40;;
71566;SDS011;59403;47.456;19.120;2023-05-20T09:30:20;11.73;;;7.27;;
71566;SDS011;59403;47.456;19.120;2023-05-20T09:32:51;9.45;;;7.62;;
71566;SDS011;59403;47.456;19.120;2023-05-20T09:35:19;10.10;;;8.18;;
71566;SDS011;59403;47.456;19.120;2023-05-20T09:37:47;9.70;;;7.68;;
71566;SDS011;59403;47.456;19.120;2023-05-20T09:40:16;10.13;;;7.68;;
71566;SDS011;59403;47.456;19.120;2023-05-20T09:42:49;11.97;;;7.47;;
71566;SDS011;59403;47.456;19.120;2023-05-20T09:45:19;10.30;;;7.07;;
71566;SDS011;59403;47.456;19.120;2023-05-20T09:47:47;12.13;;;7.57;;
71566;SDS011;59403;47.456;19.120;2023-05-20T09:50:16;9.65;;;7.60;;
71566;SDS011;59403;47.456;19.120;2023-05-20T09:52:45;10.85;;;7.55;;
71566;SDS011;59403;47.456;19.120;2023-05-20T09:55:13;8.30;;;7.17;;
71566;SDS011;59403;47.456;19.120;2023-05-20T09:57:41;8.13;;;6.78;;
71566;SDS011;59403;47.456;19.120;2023-05-20T10:00:10;8.73;;;7.37;;
71566;SDS011;59403;47.456;19.120;2023-05-20T10:02:40;11.68;;;7.97;;
71566;SDS011;59403;47.456;19.120;2023-05-20T10:05:10;12.90;;;7.40;;
71566;SDS011;59403;47.456;19.120;2023-05-20T10:10:51;8.50;;;7.07;;
71566;SDS011;59403;47.456;19.120;2023-05-20T10:13:32;10.77;;;7.65;;
71566;SDS011;59403;47.456;19.120;2023-05-20T10:16:12;9.75;;;6.32;;
71566;SDS011;59403;47.456;19.120;2023-05-20T10:18:55;9.50;;;6.93;;
71566;SDS011;59403;47.456;19.120;2023-05-20T10:21:39;11.77;;;7.50;;
71566;SDS011;59403;47.456;19.120;2023-05-20T10:24:06;9.35;;;7.68;;
71566;SDS011;59403;47.456;19.120;2023-05-20T10:26:34;10.25;;;7.95;;
71566;SDS011;59403;47.456;19.120;2023-05-20T10:29:13;10.82;;;8.15;;
71566;SDS011;59403;47.456;19.120;2023-05-20T10:31:44;10.75;;;7.60;;
71566;SDS011;59403;47.456;19.120;2023-05-20T10:34:14;10.93;;;6.73;;
71566;SDS011;59403;47.456;19.120;2023-05-20T10:36:44;9.77;;;7.40;;
71566;SDS011;59403;47.456;19.120;2023-05-20T10:39:13;12.05;;;7.97;;
71566;SDS011;59403;47.456;19.120;2023-05-20T10:41:42;9.43;;;6.90;;
71566;SDS011;59403;47.456;19.120;2023-05-20T10:44:09;9.25;;;7.37;;
71566;SDS011;59403;47.456;19.120;2023-05-20T10:46:36;8.97;;;6.83;;
71566;SDS011;59403;47.456;19.120;2023-05-20T10:49:05;7.57;;;6.78;;
71566;SDS011;59403;47.456;19.120;2023-05-20T10:51:43;10.77;;;6.93;;
71566;SDS011;59403;47.456;19.120;2023-05-20T10:54:12;8.82;;;6.30;;
71566;SDS011;59403;47.456;19.120;2023-05-20T10:56:49;12.68;;;6.37;;
71566;SDS011;59403;47.456;19.120;2023-05-20T10:59:17;8.67;;;6.50;;
71566;SDS011;59403;47.456;19.120;2023-05-20T11:01:45;10.18;;;6.40;;
71566;SDS011;59403;47.456;19.120;2023-05-20T11:04:14;10.35;;;7.57;;
71566;SDS011;59403;47.456;19.120;2023-05-20T11:06:49;9.38;;;7.53;;
71566;SDS011;59403;47.456;19.120;2023-05-20T11:09:17;9.25;;;6.93;;
71566;SDS011;59403;47.456;19.120;2023-05-20T11:11:44;7.73;;;6.80;;
71566;SDS011;59403;47.456;19.120;2023-05-20T11:14:12;9.02;;;6.87;;
71566;SDS011;59403;47.456;19.120;2023-05-20T11:16:39;9.23;;;6.47;;
71566;SDS011;59403;47.456;19.120;2023-05-20T11:19:06;9.98;;;6.70;;
71566;SDS011;59403;47.456;19.120;2023-05-20T11:21:35;8.85;;;7.03;;
71566;SDS011;59403;47.456;19.120;2023-05-20T11:24:11;10.60;;;7.10;;
71566;SDS011;59403;47.456;19.120;2023-05-20T11:26:38;9.23;;;7.12;;
71566;SDS011;59403;47.456;19.120;2023-05-20T11:29:06;10.05;;;8.00;;
71566;SDS011;59403;47.456;19.120;2023-05-20T11:31:33;11.77;;;7.28;;
71566;SDS011;59403;47.456;19.120;2023-05-20T11:34:02;9.77;;;7.35;;
71566;SDS011;59403;47.456;19.120;2023-05-20T11:36:29;8.60;;;6.73;;
71566;SDS011;59403;47.456;19.120;2023-05-20T11:38:58;10.02;;;6.93;;
71566;SDS011;59403;47.456;19.120;2023-05-20T11:41:26;8.48;;;7.57;;
71566;SDS011;59403;47.456;19.120;2023-05-20T11:43:54;8.90;;;6.80;;
71566;SDS011;59403;47.456;19.120;2023-05-20T11:46:23;9.02;;;7.28;;
71566;SDS011;59403;47.456;19.120;2023-05-20T11:48:50;11.67;;;7.30;;
71566;SDS011;59403;47.456;19.120;2023-05-20T11:51:21;7.97;;;6.78;;
71566;SDS011;59403;47.456;19.120;2023-05-20T11:53:49;10.43;;;7.22;;
71566;SDS011;59403;47.456;19.120;2023-05-20T11:56:17;8.77;;;7.15;;
71566;SDS011;59403;47.456;19.120;2023-05-20T11:58:45;9.75;;;7.70;;
71566;SDS011;59403;47.456;19.120;2023-05-20T12:01:12;9.23;;;7.20;;
71566;SDS011;59403;47.456;19.120;2023-05-20T12:03:40;9.00;;;7.37;;
71566;SDS011;59403;47.456;19.120;2023-05-20T12:06:06;10.60;;;7.35;;
71566;SDS011;59403;47.456;19.120;2023-05-20T12:08:36;9.30;;;6.80;;
71566;SDS011;59403;47.456;19.120;2023-05-20T12:11:03;10.63;;;7.78;;
71566;SDS011;59403;47.456;19.120;2023-05-20T12:13:32;9.50;;;7.17;;
71566;SDS011;59403;47.456;19.120;2023-05-20T12:15:58;9.77;;;7.22;;
71566;SDS011;59403;47.456;19.120;2023-05-20T12:18:25;9.73;;;7.22;;
71566;SDS011;59403;47.456;19.120;2023-05-20T12:20:52;8.90;;;7.45;;
71566;SDS011;59403;47.456;19.120;2023-05-20T12:23:19;10.63;;;8.15;;
71566;SDS011;59403;47.456;19.120;2023-05-20T12:25:46;8.23;;;7.33;;
71566;SDS011;59403;47.456;19.120;2023-05-20T12:28:14;8.85;;;7.62;;
71566;SDS011;59403;47.456;19.120;2023-05-20T12:30:42;10.55;;;7.78;;
71566;SDS011;59403;47.456;19.120;2023-05-20T12:33:09;9.10;;;7.70;;
71566;SDS011;59403;47.456;19.120;2023-05-20T12:35:39;8.75;;;7.37;;
71566;SDS011;59403;47.456;19.120;2023-05-20T12:38:06;9.13;;;8.03;;
71566;SDS011;59403;47.456;19.120;2023-05-20T12:40:37;9.70;;;7.85;;
71566;SDS011;59403;47.456;19.120;2023-05-20T12:43:04;9.63;;;8.10;;
71566;SDS011;59403;47.456;19.120;2023-05-20T12:45:31;9.57;;;7.45;;
71566;SDS011;59403;47.456;19.120;2023-05-20T12:48:00;10.88;;;8.13;;
71566;SDS011;59403;47.456;19.120;2023-05-20T12:50:27;9.17;;;7.50;;
71566;SDS011;59403;47.456;19.120;2023-05-20T12:52:54;9.27;;;7.15;;
71566;SDS011;59403;47.456;19.120;2023-05-20T12:55:21;9.82;;;8.30;;
71566;SDS011;59403;47.456;19.120;2023-05-20T12:57:48;8.82;;;7.32;;
71566;SDS011;59403;47.456;19.120;2023-05-20T13:00:21;11.20;;;8.27;;
71566;SDS011;59403;47.456;19.120;2023-05-20T13:02:48;9.63;;;7.77;;
71566;SDS011;59403;47.456;19.120;2023-05-20T13:05:18;10.35;;;7.47;;
71566;SDS011;59403;47.456;19.120;2023-05-20T13:07:45;8.93;;;7.37;;
71566;SDS011;59403;47.456;19.120;2023-05-20T13:10:13;10.95;;;7.43;;
71566;SDS011;59403;47.456;19.120;2023-05-20T13:12:41;10.68;;;8.02;;
71566;SDS011;59403;47.456;19.120;2023-05-20T13:15:10;11.60;;;7.43;;
71566;SDS011;59403;47.456;19.120;2023-05-20T13:17:37;11.50;;;8.05;;
71566;SDS011;59403;47.456;19.120;2023-05-20T13:20:07;10.27;;;8.63;;
71566;SDS011;59403;47.456;19.120;2023-05-20T13:22:37;10.50;;;7.90;;
71566;SDS011;59403;47.456;19.120;2023-05-20T13:25:04;9.70;;;8.25;;
71566;SDS011;59403;47.456;19.120;2023-05-20T13:27:32;9.43;;;7.47;;
71566;SDS011;59403;47.456;19.120;2023-05-20T13:29:58;9.75;;;7.60;;
71566;SDS011;59403;47.456;19.120;2023-05-20T13:32:25;9.38;;;8.38;;
71566;SDS011;59403;47.456;19.120;2023-05-20T13:34:52;9.80;;;7.97;;
71566;SDS011;59403;47.456;19.120;2023-05-20T13:37:21;9.98;;;8.18;;
71566;SDS011;59403;47.456;19.120;2023-05-20T13:39:51;11.27;;;7.80;;
71566;SDS011;59403;47.456;19.120;2023-05-20T13:42:18;11.32;;;8.40;;
71566;SDS011;59403;47.456;19.120;2023-05-20T13:44:45;11.68;;;7.95;;
71566;SDS011;59403;47.456;19.120;2023-05-20T13:47:12;11.90;;;7.43;;
71566;SDS011;59403;47.456;19.120;2023-05-20T13:49:39;9.70;;;8.70;;
71566;SDS011;59403;47.456;19.120;2023-05-20T13:52:05;11.00;;;8.03;;
71566;SDS011;59403;47.456;19.120;2023-05-20T13:54:32;13.95;;;8.52;;
71566;SDS011;59403;47.456;19.120;2023-05-20T13:57:00;11.35;;;8.20;;
71566;SDS011;59403;47.456;19.120;2023-05-20T13:59:31;9.68;;;7.60;;
71566;SDS011;59403;47.456;19.120;2023-05-20T14:01:59;10.32;;;8.43;;
71566;SDS011;59403;47.456;19.120;2023-05-20T14:04:26;10.63;;;8.20;;
71566;SDS011;59403;47.456;19.120;2023-05-20T14:06:52;10.93;;;8.02;;
71566;SDS011;59403;47.456;19.120;2023-05-20T14:09:19;10.95;;;8.68;;
71566;SDS011;59403;47.456;19.120;2023-05-20T14:11:46;10.30;;;8.82;;
71566;SDS011;59403;47.456;19.120;2023-05-20T14:14:16;10.63;;;8.02;;
71566;SDS011;59403;47.456;19.120;2023-05-20T14:16:43;11.33;;;8.20;;
71566;SDS011;59403;47.456;19.120;2023-05-20T14:19:10;9.88;;;7.45;;
71566;SDS011;59403;47.456;19.120;2023-05-20T14:21:37;11.05;;;8.52;;
71566;SDS011;59403;47.456;19.120;2023-05-20T14:24:04;11.40;;;7.82;;
71566;SDS011;59403;47.456;19.120;2023-05-20T14:26:32;10.00;;;8.20;;
71566;SDS011;59403;47.456;19.120;2023-05-20T14:28:59;9.20;;;7.90;;
71566;SDS011;59403;47.456;19.120;2023-05-20T14:31:27;10.15;;;7.72;;
71566;SDS011;59403;47.456;19.120;2023-05-20T14:33:54;11.55;;;8.15;;